sensor_id;sensor_type;location;lat;lon;timestamp;pressure;altitude;pressure_sealevel;temperature;humidity
72226;BME280;60130;52.250;5.048;2023-03-23T00:00:00;395.2;;;12.3;0.0
72226;BME280;60130;52.250;5.048;2023-03-23T00:05:00;395.2;;;12.3;0.0
72226;BME280;60130;52.250;5.048;2023-03-23T00:10:00;395.3;;;12.4;0.0
72226;BME280;60130;52.250;5.048;2023-03-23T00:15:03;395.3;;;12.4;0.0
72226;BME280;60130;52.250;5.048;2023-03-23T00:20:01;395.3;;;12.4;0.0
72226;BME280;60130;52.250;5.048;2023-03-23T00:25:00;395.3;;;12.4;0.0
72226;BME280;60130;52.250;5.048;2023-03-23T00:30:00;395.3;;;12.4;0.0
72226;BME280;60130;52.250;5.048;2023-03-23T00:35:00;395.4;;;12.6;0.0
72226;BME280;60130;52.250;5.048;2023-03-23T00:40:00;395.4;;;12.6;0.0
72226;BME280;60130;52.250;5.048;2023-03-23T00:45:00;395.4;;;12.6;0.0
72226;BME280;60130;52.250;5.048;2023-03-23T00:50:00;395.4;;;12.5;0.0
72226;BME280;60130;52.250;5.048;2023-03-23T00:55:00;395.3;;;12.5;0.0
72226;BME280;60130;52.250;5.048;2023-03-23T01:00:00;395.4;;;12.5;0.0
72226;BME280;60130;52.250;5.048;2023-03-23T01:05:00;395.4;;;12.6;0.0
72226;BME280;60130;52.250;5.048;2023-03-23T01:10:00;395.4;;;12.5;0.0
72226;BME280;60130;52.250;5.048;2023-03-23T01:15:00;395.4;;;12.5;0.0
72226;BME280;60130;52.250;5.048;2023-03-23T01:20:00;395.4;;;12.5;0.0
72226;BME280;60130;52.250;5.048;2023-03-23T01:25:00;395.4;;;12.6;0.0
72226;BME280;60130;52.250;5.048;2023-03-23T01:30:00;395.4;;;12.6;0.0
72226;BME280;60130;52.250;5.048;2023-03-23T01:35:00;395.4;;;12.6;0.0
72226;BME280;60130;52.250;5.048;2023-03-23T01:40:00;395.5;;;12.7;0.0
72226;BME280;60130;52.250;5.048;2023-03-23T01:50:00;395.4;;;12.6;0.0
72226;BME280;60130;52.250;5.048;2023-03-23T01:55:00;395.4;;;12.6;0.0
72226;BME280;60130;52.250;5.048;2023-03-23T02:00:03;395.4;;;12.6;0.0
72226;BME280;60130;52.250;5.048;2023-03-23T02:05:04;395.5;;;12.7;0.0
72226;BME280;60130;52.250;5.048;2023-03-23T02:10:00;395.5;;;12.6;0.0
72226;BME280;60130;52.250;5.048;2023-03-23T02:15:00;395.5;;;12.7;0.0
72226;BME280;60130;52.250;5.048;2023-03-23T02:20:13;395.5;;;12.7;0.0
72226;BME280;60130;52.250;5.048;2023-03-23T02:25:16;395.4;;;12.6;0.0
72226;BME280;60130;52.250;5.048;2023-03-23T02:30:11;395.5;;;12.7;0.0
72226;BME280;60130;52.250;5.048;2023-03-23T02:35:02;395.5;;;12.7;0.0
72226;BME280;60130;52.250;5.048;2023-03-23T02:40:04;395.4;;;12.6;0.0
72226;BME280;60130;52.250;5.048;2023-03-23T02:45:03;395.5;;;12.7;0.0
72226;BME280;60130;52.250;5.048;2023-03-23T02:50:01;395.5;;;12.7;0.0
72226;BME280;60130;52.250;5.048;2023-03-23T02:55:01;395.5;;;12.7;0.0
72226;BME280;60130;52.250;5.048;2023-03-23T03:00:00;395.5;;;12.6;0.0
72226;BME280;60130;52.250;5.048;2023-03-23T03:05:04;395.4;;;12.6;0.0
72226;BME280;60130;52.250;5.048;2023-03-23T03:10:03;395.5;;;12.7;0.0
72226;BME280;60130;52.250;5.048;2023-03-23T03:15:06;395.4;;;12.6;0.0
72226;BME280;60130;52.250;5.048;2023-03-23T03:20:02;395.3;;;12.5;0.0
72226;BME280;60130;52.250;5.048;2023-03-23T03:25:00;395.3;;;12.4;0.0
72226;BME280;60130;52.250;5.048;2023-03-23T03:30:03;395.3;;;12.4;0.0
72226;BME280;60130;52.250;5.048;2023-03-23T03:35:01;395.3;;;12.4;0.0
72226;BME280;60130;52.250;5.048;2023-03-23T03:40:00;395.3;;;12.4;0.0
72226;BME280;60130;52.250;5.048;2023-03-23T03:45:00;395.2;;;12.3;0.0
72226;BME280;60130;52.250;5.048;2023-03-23T03:50:00;395.2;;;12.3;0.0
72226;BME280;60130;52.250;5.048;2023-03-23T03:55:00;395.0;;;11.9;0.0
72226;BME280;60130;52.250;5.048;2023-03-23T04:00:00;394.8;;;11.6;0.0
72226;BME280;60130;52.250;5.048;2023-03-23T04:05:00;394.7;;;11.5;0.0
72226;BME280;60130;52.250;5.048;2023-03-23T04:10:00;394.7;;;11.5;0.0
72226;BME280;60130;52.250;5.048;2023-03-23T04:15:00;394.7;;;11.6;0.0
72226;BME280;60130;52.250;5.048;2023-03-23T04:20:00;394.7;;;11.6;0.0
72226;BME280;60130;52.250;5.048;2023-03-23T04:25:01;394.6;;;11.5;0.0
72226;BME280;60130;52.250;5.048;2023-03-23T04:30:00;394.6;;;11.5;0.0
72226;BME280;60130;52.250;5.048;2023-03-23T04:35:00;394.6;;;11.5;0.0
72226;BME280;60130;52.250;5.048;2023-03-23T04:40:00;394.5;;;11.3;0.0
72226;BME280;60130;52.250;5.048;2023-03-23T04:45:00;394.5;;;11.2;0.0
72226;BME280;60130;52.250;5.048;2023-03-23T04:50:00;394.5;;;11.3;0.0
72226;BME280;60130;52.250;5.048;2023-03-23T04:55:00;394.5;;;11.4;0.0
72226;BME280;60130;52.250;5.048;2023-03-23T05:00:00;394.6;;;11.5;0.0
72226;BME280;60130;52.250;5.048;2023-03-23T05:05:00;394.7;;;11.6;0.0
72226;BME280;60130;52.250;5.048;2023-03-23T05:10:00;394.7;;;11.6;0.0
72226;BME280;60130;52.250;5.048;2023-03-23T05:15:00;394.7;;;11.6;0.0
72226;BME280;60130;52.250;5.048;2023-03-23T05:20:01;394.7;;;11.6;0.0
72226;BME280;60130;52.250;5.048;2023-03-23T05:25:00;394.7;;;11.6;0.0
72226;BME280;60130;52.250;5.048;2023-03-23T05:30:00;394.8;;;11.7;0.0
72226;BME280;60130;52.250;5.048;2023-03-23T05:35:01;394.8;;;11.7;0.0
72226;BME280;60130;52.250;5.048;2023-03-23T05:40:00;394.7;;;11.6;0.0
72226;BME280;60130;52.250;5.048;2023-03-23T05:45:00;394.6;;;11.4;0.0
72226;BME280;60130;52.250;5.048;2023-03-23T05:50:00;394.4;;;11.2;0.0
72226;BME280;60130;52.250;5.048;2023-03-23T05:55:01;394.4;;;11.1;0.0
72226;BME280;60130;52.250;5.048;2023-03-23T06:00:00;394.4;;;11.1;0.0
72226;BME280;60130;52.250;5.048;2023-03-23T06:05:00;394.4;;;11.2;0.0
72226;BME280;60130;52.250;5.048;2023-03-23T06:10:00;394.5;;;11.3;0.0
72226;BME280;60130;52.250;5.048;2023-03-23T06:15:00;394.5;;;11.3;0.0
72226;BME280;60130;52.250;5.048;2023-03-23T06:20:00;394.5;;;11.3;0.0
72226;BME280;60130;52.250;5.048;2023-03-23T06:25:00;394.6;;;11.4;0.0
72226;BME280;60130;52.250;5.048;2023-03-23T06:30:00;394.6;;;11.5;0.0
72226;BME280;60130;52.250;5.048;2023-03-23T06:35:00;394.6;;;11.5;0.0
72226;BME280;60130;52.250;5.048;2023-03-23T06:40:00;394.6;;;11.5;0.0
72226;BME280;60130;52.250;5.048;2023-03-23T06:45:00;394.8;;;11.6;0.0
72226;BME280;60130;52.250;5.048;2023-03-23T06:50:00;394.8;;;11.8;0.0
72226;BME280;60130;52.250;5.048;2023-03-23T06:55:00;394.9;;;11.9;0.0
72226;BME280;60130;52.250;5.048;2023-03-23T07:00:00;394.9;;;11.8;0.0
72226;BME280;60130;52.250;5.048;2023-03-23T07:05:00;394.9;;;11.8;0.0
72226;BME280;60130;52.250;5.048;2023-03-23T07:10:00;395.0;;;12.0;0.0
72226;BME280;60130;52.250;5.048;2023-03-23T07:15:00;395.0;;;11.9;0.0
72226;BME280;60130;52.250;5.048;2023-03-23T07:20:00;395.0;;;12.0;0.0
72226;BME280;60130;52.250;5.048;2023-03-23T07:25:00;395.0;;;12.0;0.0
72226;BME280;60130;52.250;5.048;2023-03-23T07:30:00;394.9;;;11.9;0.0
72226;BME280;60130;52.250;5.048;2023-03-23T07:35:00;394.9;;;11.9;0.0
72226;BME280;60130;52.250;5.048;2023-03-23T07:40:00;394.9;;;11.8;0.0
72226;BME280;60130;52.250;5.048;2023-03-23T07:45:00;394.9;;;11.8;0.0
72226;BME280;60130;52.250;5.048;2023-03-23T07:50:00;395.0;;;12.0;0.0
72226;BME280;60130;52.250;5.048;2023-03-23T07:55:00;395.0;;;12.1;0.0
72226;BME280;60130;52.250;5.048;2023-03-23T08:00:00;394.9;;;11.9;0.0
72226;BME280;60130;52.250;5.048;2023-03-23T08:05:00;395.0;;;12.0;0.0
72226;BME280;60130;52.250;5.048;2023-03-23T08:10:00;395.2;;;12.3;0.0
72226;BME280;60130;52.250;5.048;2023-03-23T08:15:00;395.6;;;12.9;0.0
72226;BME280;60130;52.250;5.048;2023-03-23T08:20:00;395.8;;;13.2;0.0
72226;BME280;60130;52.250;5.048;2023-03-23T08:25:00;395.6;;;12.9;0.0
72226;BME280;60130;52.250;5.048;2023-03-23T08:30:00;395.5;;;12.7;0.0
72226;BME280;60130;52.250;5.048;2023-03-23T08:35:00;395.4;;;12.6;0.0
72226;BME280;60130;52.250;5.048;2023-03-23T08:40:00;395.8;;;13.1;0.0
72226;BME280;60130;52.250;5.048;2023-03-23T08:45:00;396.0;;;13.5;0.0
72226;BME280;60130;52.250;5.048;2023-03-23T08:50:00;396.0;;;13.4;0.0
72226;BME280;60130;52.250;5.048;2023-03-23T08:55:00;396.1;;;13.5;0.0
72226;BME280;60130;52.250;5.048;2023-03-23T09:00:00;396.0;;;13.5;0.0
72226;BME280;60130;52.250;5.048;2023-03-23T09:05:00;396.1;;;13.6;0.0
72226;BME280;60130;52.250;5.048;2023-03-23T09:10:00;396.0;;;13.5;0.0
72226;BME280;60130;52.250;5.048;2023-03-23T09:15:00;396.1;;;13.6;0.0
72226;BME280;60130;52.250;5.048;2023-03-23T09:20:00;396.1;;;13.6;0.0
72226;BME280;60130;52.250;5.048;2023-03-23T09:25:00;396.4;;;14.0;0.0
72226;BME280;60130;52.250;5.048;2023-03-23T09:30:00;396.3;;;13.9;0.0
72226;BME280;60130;52.250;5.048;2023-03-23T09:35:00;396.2;;;13.8;0.0
72226;BME280;60130;52.250;5.048;2023-03-23T09:40:00;396.3;;;13.8;0.0
72226;BME280;60130;52.250;5.048;2023-03-23T09:45:06;396.3;;;13.8;0.0
72226;BME280;60130;52.250;5.048;2023-03-23T09:50:06;396.0;;;13.4;0.0
72226;BME280;60130;52.250;5.048;2023-03-23T09:55:00;396.2;;;13.8;0.0
72226;BME280;60130;52.250;5.048;2023-03-23T10:00:02;396.1;;;13.6;0.0
72226;BME280;60130;52.250;5.048;2023-03-23T10:05:12;396.4;;;14.1;0.0
72226;BME280;60130;52.250;5.048;2023-03-23T10:10:01;396.2;;;13.7;0.0
72226;BME280;60130;52.250;5.048;2023-03-23T10:15:04;396.0;;;13.5;0.0
72226;BME280;60130;52.250;5.048;2023-03-23T10:20:14;396.2;;;13.8;0.0
72226;BME280;60130;52.250;5.048;2023-03-23T10:25:07;396.2;;;13.8;0.0
72226;BME280;60130;52.250;5.048;2023-03-23T10:30:03;396.2;;;13.7;0.0
72226;BME280;60130;52.250;5.048;2023-03-23T10:35:03;396.5;;;14.2;0.0
72226;BME280;60130;52.250;5.048;2023-03-23T10:40:02;396.6;;;14.3;0.0
72226;BME280;60130;52.250;5.048;2023-03-23T10:45:12;396.4;;;14.0;0.0
72226;BME280;60130;52.250;5.048;2023-03-23T10:50:02;396.2;;;13.8;0.0
72226;BME280;60130;52.250;5.048;2023-03-23T10:55:03;396.1;;;13.7;0.0
72226;BME280;60130;52.250;5.048;2023-03-23T11:00:06;396.6;;;14.3;0.0
72226;BME280;60130;52.250;5.048;2023-03-23T11:05:03;396.9;;;14.7;0.0
72226;BME280;60130;52.250;5.048;2023-03-23T11:10:06;396.4;;;14.0;0.0
72226;BME280;60130;52.250;5.048;2023-03-23T11:15:15;396.4;;;14.0;0.0
72226;BME280;60130;52.250;5.048;2023-03-23T11:20:10;396.5;;;14.2;0.0
72226;BME280;60130;52.250;5.048;2023-03-23T11:25:03;396.9;;;14.7;0.0
72226;BME280;60130;52.250;5.048;2023-03-23T11:30:08;396.6;;;14.3;0.0
72226;BME280;60130;52.250;5.048;2023-03-23T11:35:01;396.5;;;14.1;0.0
72226;BME280;60130;52.250;5.048;2023-03-23T11:40:02;396.7;;;14.5;0.0
72226;BME280;60130;52.250;5.048;2023-03-23T11:45:14;397.1;;;15.0;0.0
72226;BME280;60130;52.250;5.048;2023-03-23T11:50:04;397.2;;;15.2;0.0
72226;BME280;60130;52.250;5.048;2023-03-23T11:55:08;397.0;;;15.0;0.0
72226;BME280;60130;52.250;5.048;2023-03-23T12:00:00;397.3;;;15.4;0.0
72226;BME280;60130;52.250;5.048;2023-03-23T12:05:18;397.5;;;15.6;0.0
72226;BME280;60130;52.250;5.048;2023-03-23T12:10:08;397.4;;;15.5;0.0
72226;BME280;60130;52.250;5.048;2023-03-23T12:15:07;397.1;;;15.0;0.0
72226;BME280;60130;52.250;5.048;2023-03-23T12:20:11;397.1;;;15.1;0.0
72226;BME280;60130;52.250;5.048;2023-03-23T12:25:08;396.9;;;14.8;0.0
72226;BME280;60130;52.250;5.048;2023-03-23T12:30:05;396.8;;;14.6;0.0
72226;BME280;60130;52.250;5.048;2023-03-23T12:35:09;396.9;;;14.8;0.0
72226;BME280;60130;52.250;5.048;2023-03-23T12:40:16;397.9;;;16.1;0.0
72226;BME280;60130;52.250;5.048;2023-03-23T12:45:05;397.9;;;16.2;0.0
72226;BME280;60130;52.250;5.048;2023-03-23T12:50:04;397.8;;;16.1;0.0
72226;BME280;60130;52.250;5.048;2023-03-23T12:55:02;397.8;;;16.0;0.0
72226;BME280;60130;52.250;5.048;2023-03-23T13:00:05;397.5;;;15.7;0.0
72226;BME280;60130;52.250;5.048;2023-03-23T13:05:03;397.6;;;15.8;0.0
72226;BME280;60130;52.250;5.048;2023-03-23T13:10:04;398.0;;;16.3;0.0
72226;BME280;60130;52.250;5.048;2023-03-23T13:15:04;398.1;;;16.4;0.0
72226;BME280;60130;52.250;5.048;2023-03-23T13:20:15;397.6;;;15.8;0.0
72226;BME280;60130;52.250;5.048;2023-03-23T13:25:06;397.6;;;15.8;0.0
72226;BME280;60130;52.250;5.048;2023-03-23T13:30:00;397.3;;;15.3;0.0
72226;BME280;60130;52.250;5.048;2023-03-23T13:35:00;397.0;;;14.9;0.0
72226;BME280;60130;52.250;5.048;2023-03-23T13:40:16;397.2;;;15.3;0.0
72226;BME280;60130;52.250;5.048;2023-03-23T13:45:18;397.0;;;14.9;0.0
72226;BME280;60130;52.250;5.048;2023-03-23T13:50:03;397.0;;;14.8;0.0
72226;BME280;60130;52.250;5.048;2023-03-23T13:55:12;397.0;;;14.9;0.0
72226;BME280;60130;52.250;5.048;2023-03-23T14:00:10;397.3;;;15.3;0.0
72226;BME280;60130;52.250;5.048;2023-03-23T14:05:10;397.4;;;15.5;0.0
72226;BME280;60130;52.250;5.048;2023-03-23T14:10:05;397.3;;;15.4;0.0
72226;BME280;60130;52.250;5.048;2023-03-23T14:15:02;397.5;;;15.7;0.0
72226;BME280;60130;52.250;5.048;2023-03-23T14:20:00;397.4;;;15.5;0.0
72226;BME280;60130;52.250;5.048;2023-03-23T14:25:01;397.6;;;15.8;0.0
72226;BME280;60130;52.250;5.048;2023-03-23T14:30:03;397.6;;;15.8;0.0
72226;BME280;60130;52.250;5.048;2023-03-23T14:35:05;397.6;;;15.8;0.0
72226;BME280;60130;52.250;5.048;2023-03-23T14:40:00;397.7;;;15.9;0.0
72226;BME280;60130;52.250;5.048;2023-03-23T14:45:00;397.8;;;16.0;0.0
72226;BME280;60130;52.250;5.048;2023-03-23T14:50:02;398.0;;;16.4;0.0
72226;BME280;60130;52.250;5.048;2023-03-23T14:55:11;397.9;;;16.3;0.0
72226;BME280;60130;52.250;5.048;2023-03-23T15:00:00;397.8;;;16.1;0.0
72226;BME280;60130;52.250;5.048;2023-03-23T15:05:02;397.8;;;16.0;0.0
72226;BME280;60130;52.250;5.048;2023-03-23T15:10:01;397.9;;;16.3;0.0
72226;BME280;60130;52.250;5.048;2023-03-23T15:15:02;397.8;;;16.0;0.0
72226;BME280;60130;52.250;5.048;2023-03-23T15:20:08;397.9;;;16.2;0.0
72226;BME280;60130;52.250;5.048;2023-03-23T15:25:08;397.6;;;15.7;0.0
72226;BME280;60130;52.250;5.048;2023-03-23T15:30:13;397.3;;;15.4;0.0
72226;BME280;60130;52.250;5.048;2023-03-23T15:35:10;397.4;;;15.5;0.0
72226;BME280;60130;52.250;5.048;2023-03-23T15:40:00;397.4;;;15.4;0.0
72226;BME280;60130;52.250;5.048;2023-03-23T15:45:19;397.3;;;15.4;0.0
72226;BME280;60130;52.250;5.048;2023-03-23T15:50:04;397.3;;;15.4;0.0
72226;BME280;60130;52.250;5.048;2023-03-23T15:55:00;397.5;;;15.6;0.0
72226;BME280;60130;52.250;5.048;2023-03-23T16:00:00;397.6;;;15.8;0.0
72226;BME280;60130;52.250;5.048;2023-03-23T16:05:00;397.5;;;15.7;0.0
72226;BME280;60130;52.250;5.048;2023-03-23T16:10:00;397.3;;;15.3;0.0
72226;BME280;60130;52.250;5.048;2023-03-23T16:15:00;397.2;;;15.2;0.0
72226;BME280;60130;52.250;5.048;2023-03-23T16:20:00;397.0;;;14.9;0.0
72226;BME280;60130;52.250;5.048;2023-03-23T16:25:00;396.9;;;14.8;0.0
72226;BME280;60130;52.250;5.048;2023-03-23T16:30:00;396.9;;;14.8;0.0
72226;BME280;60130;52.250;5.048;2023-03-23T16:35:00;396.9;;;14.8;0.0
72226;BME280;60130;52.250;5.048;2023-03-23T16:40:00;396.9;;;14.8;0.0
72226;BME280;60130;52.250;5.048;2023-03-23T16:45:00;397.0;;;14.9;0.0
72226;BME280;60130;52.250;5.048;2023-03-23T16:50:00;397.0;;;14.9;0.0
72226;BME280;60130;52.250;5.048;2023-03-23T16:55:00;397.0;;;14.8;0.0
72226;BME280;60130;52.250;5.048;2023-03-23T17:00:00;396.9;;;14.8;0.0
72226;BME280;60130;52.250;5.048;2023-03-23T17:05:00;396.9;;;14.8;0.0
72226;BME280;60130;52.250;5.048;2023-03-23T17:10:00;396.8;;;14.6;0.0
72226;BME280;60130;52.250;5.048;2023-03-23T17:15:01;396.8;;;14.6;0.0
72226;BME280;60130;52.250;5.048;2023-03-23T17:20:00;396.7;;;14.5;0.0
72226;BME280;60130;52.250;5.048;2023-03-23T17:25:00;396.7;;;14.5;0.0
72226;BME280;60130;52.250;5.048;2023-03-23T17:30:00;396.7;;;14.5;0.0
72226;BME280;60130;52.250;5.048;2023-03-23T17:35:00;396.7;;;14.5;0.0
72226;BME280;60130;52.250;5.048;2023-03-23T17:40:00;396.8;;;14.6;0.0
72226;BME280;60130;52.250;5.048;2023-03-23T17:45:00;396.7;;;14.5;0.0
72226;BME280;60130;52.250;5.048;2023-03-23T17:50:00;396.7;;;14.5;0.0
72226;BME280;60130;52.250;5.048;2023-03-23T17:55:00;396.6;;;14.3;0.0
72226;BME280;60130;52.250;5.048;2023-03-23T18:00:00;396.6;;;14.4;0.0
72226;BME280;60130;52.250;5.048;2023-03-23T18:05:00;396.7;;;14.4;0.0
72226;BME280;60130;52.250;5.048;2023-03-23T18:10:00;396.6;;;14.3;0.0
72226;BME280;60130;52.250;5.048;2023-03-23T18:15:00;396.6;;;14.3;0.0
72226;BME280;60130;52.250;5.048;2023-03-23T18:20:00;396.5;;;14.2;0.0
72226;BME280;60130;52.250;5.048;2023-03-23T18:25:00;396.6;;;14.3;0.0
72226;BME280;60130;52.250;5.048;2023-03-23T18:30:00;396.5;;;14.2;0.0
72226;BME280;60130;52.250;5.048;2023-03-23T18:35:00;396.3;;;13.9;0.0
72226;BME280;60130;52.250;5.048;2023-03-23T18:40:00;396.1;;;13.6;0.0
72226;BME280;60130;52.250;5.048;2023-03-23T18:45:00;395.9;;;13.3;0.0
72226;BME280;60130;52.250;5.048;2023-03-23T18:50:00;395.8;;;13.2;0.0
72226;BME280;60130;52.250;5.048;2023-03-23T18:55:00;395.8;;;13.2;0.0
72226;BME280;60130;52.250;5.048;2023-03-23T19:00:00;395.8;;;13.1;0.0
72226;BME280;60130;52.250;5.048;2023-03-23T19:05:00;395.7;;;13.0;0.0
72226;BME280;60130;52.250;5.048;2023-03-23T19:10:00;395.7;;;13.0;0.0
72226;BME280;60130;52.250;5.048;2023-03-23T19:15:00;395.6;;;12.9;0.0
72226;BME280;60130;52.250;5.048;2023-03-23T19:20:00;395.6;;;12.8;0.0
72226;BME280;60130;52.250;5.048;2023-03-23T19:25:00;395.5;;;12.7;0.0
72226;BME280;60130;52.250;5.048;2023-03-23T19:30:00;395.4;;;12.6;0.0
72226;BME280;60130;52.250;5.048;2023-03-23T19:35:00;395.4;;;12.5;0.0
72226;BME280;60130;52.250;5.048;2023-03-23T19:40:00;395.3;;;12.4;0.0
72226;BME280;60130;52.250;5.048;2023-03-23T19:45:00;395.3;;;12.4;0.0
72226;BME280;60130;52.250;5.048;2023-03-23T19:50:00;395.3;;;12.5;0.0
72226;BME280;60130;52.250;5.048;2023-03-23T19:55:00;395.3;;;12.4;0.0
72226;BME280;60130;52.250;5.048;2023-03-23T20:00:00;395.3;;;12.4;0.0
72226;BME280;60130;52.250;5.048;2023-03-23T20:05:00;395.2;;;12.3;0.0
72226;BME280;60130;52.250;5.048;2023-03-23T20:10:00;395.2;;;12.3;0.0
72226;BME280;60130;52.250;5.048;2023-03-23T20:15:00;395.2;;;12.3;0.0
72226;BME280;60130;52.250;5.048;2023-03-23T20:20:00;395.1;;;12.2;0.0
72226;BME280;60130;52.250;5.048;2023-03-23T20:25:00;395.1;;;12.2;0.0
72226;BME280;60130;52.250;5.048;2023-03-23T20:30:00;395.1;;;12.2;0.0
72226;BME280;60130;52.250;5.048;2023-03-23T20:35:00;395.2;;;12.2;0.0
72226;BME280;60130;52.250;5.048;2023-03-23T20:40:00;395.2;;;12.3;0.0
72226;BME280;60130;52.250;5.048;2023-03-23T20:45:01;395.1;;;12.2;0.0
72226;BME280;60130;52.250;5.048;2023-03-23T20:50:00;395.1;;;12.2;0.0
72226;BME280;60130;52.250;5.048;2023-03-23T20:55:00;395.1;;;12.1;0.0
72226;BME280;60130;52.250;5.048;2023-03-23T21:00:00;395.1;;;12.1;0.0
72226;BME280;60130;52.250;5.048;2023-03-23T21:05:00;395.1;;;12.2;0.0
72226;BME280;60130;52.250;5.048;2023-03-23T21:10:00;395.1;;;12.1;0.0
72226;BME280;60130;52.250;5.048;2023-03-23T21:15:00;395.0;;;12.0;0.0
72226;BME280;60130;52.250;5.048;2023-03-23T21:20:00;395.0;;;12.0;0.0
72226;BME280;60130;52.250;5.048;2023-03-23T21:25:00;395.0;;;12.0;0.0
72226;BME280;60130;52.250;5.048;2023-03-23T21:30:00;395.0;;;12.0;0.0
72226;BME280;60130;52.250;5.048;2023-03-23T21:35:00;395.0;;;12.0;0.0
72226;BME280;60130;52.250;5.048;2023-03-23T21:40:00;395.0;;;12.0;0.0
72226;BME280;60130;52.250;5.048;2023-03-23T21:45:00;395.0;;;11.9;0.0
72226;BME280;60130;52.250;5.048;2023-03-23T21:50:00;395.0;;;12.0;0.0
72226;BME280;60130;52.250;5.048;2023-03-23T21:55:01;395.0;;;12.0;0.0
72226;BME280;60130;52.250;5.048;2023-03-23T22:00:00;395.1;;;12.1;0.0
72226;BME280;60130;52.250;5.048;2023-03-23T22:05:00;395.0;;;12.1;0.0
72226;BME280;60130;52.250;5.048;2023-03-23T22:10:00;395.1;;;12.1;0.0
72226;BME280;60130;52.250;5.048;2023-03-23T22:15:00;395.1;;;12.1;0.0
72226;BME280;60130;52.250;5.048;2023-03-23T22:20:00;395.1;;;12.1;0.0
72226;BME280;60130;52.250;5.048;2023-03-23T22:25:00;395.0;;;12.1;0.0
72226;BME280;60130;52.250;5.048;2023-03-23T22:30:00;395.0;;;12.0;0.0
72226;BME280;60130;52.250;5.048;2023-03-23T22:35:00;395.0;;;12.0;0.0
72226;BME280;60130;52.250;5.048;2023-03-23T22:40:00;395.0;;;12.0;0.0
72226;BME280;60130;52.250;5.048;2023-03-23T22:45:00;395.0;;;11.9;0.0
72226;BME280;60130;52.250;5.048;2023-03-23T22:50:00;394.9;;;11.9;0.0
72226;BME280;60130;52.250;5.048;2023-03-23T22:55:00;394.9;;;11.8;0.0
72226;BME280;60130;52.250;5.048;2023-03-23T23:00:00;394.9;;;11.8;0.0
72226;BME280;60130;52.250;5.048;2023-03-23T23:05:00;394.9;;;11.8;0.0
72226;BME280;60130;52.250;5.048;2023-03-23T23:10:00;394.9;;;11.8;0.0
72226;BME280;60130;52.250;5.048;2023-03-23T23:15:00;394.8;;;11.7;0.0
72226;BME280;60130;52.250;5.048;2023-03-23T23:20:00;394.8;;;11.7;0.0
72226;BME280;60130;52.250;5.048;2023-03-23T23:25:00;394.8;;;11.7;0.0
72226;BME280;60130;52.250;5.048;2023-03-23T23:30:00;394.8;;;11.7;0.0
72226;BME280;60130;52.250;5.048;2023-03-23T23:35:00;394.8;;;11.8;0.0
72226;BME280;60130;52.250;5.048;2023-03-23T23:40:00;394.9;;;11.8;0.0
72226;BME280;60130;52.250;5.048;2023-03-23T23:45:00;394.9;;;11.9;0.0
72226;BME280;60130;52.250;5.048;2023-03-23T23:50:00;394.9;;;11.9;0.0
72226;BME280;60130;52.250;5.048;2023-03-23T23:55:00;395.0;;;11.9;0.0
